sensor_id;sensor_type;location;lat;lon;timestamp;P1;durP1;ratioP1;P2;durP2;ratioP2
75154;SDS011;63735;44.730;37.818;2023-05-20T00:00:46;20.52;;;11.02;;
75154;SDS011;63735;44.730;37.818;2023-05-20T00:03:15;20.25;;;12.23;;
75154;SDS011;63735;44.730;37.818;2023-05-20T00:05:41;22.45;;;11.10;;
75154;SDS011;63735;44.730;37.818;2023-05-20T00:08:07;19.80;;;11.02;;
75154;SDS011;63735;44.730;37.818;2023-05-20T00:10:34;19.60;;;10.10;;
75154;SDS011;63735;44.730;37.818;2023-05-20T00:13:00;18.15;;;10.25;;
75154;SDS011;63735;44.730;37.818;2023-05-20T00:15:27;20.92;;;11.32;;
75154;SDS011;63735;44.730;37.818;2023-05-20T00:17:53;16.20;;;9.98;;
75154;SDS011;63735;44.730;37.818;2023-05-20T00:20:20;24.25;;;10.93;;
75154;SDS011;63735;44.730;37.818;2023-05-20T00:22:45;16.30;;;10.02;;
75154;SDS011;63735;44.730;37.818;2023-05-20T00:25:12;22.25;;;10.95;;
75154;SDS011;63735;44.730;37.818;2023-05-20T00:27:41;17.25;;;10.63;;
75154;SDS011;63735;44.730;37.818;2023-05-20T00:30:07;19.85;;;10.52;;
75154;SDS011;63735;44.730;37.818;2023-05-20T00:32:34;22.75;;;11.65;;
75154;SDS011;63735;44.730;37.818;2023-05-20T00:35:00;24.83;;;10.50;;
75154;SDS011;63735;44.730;37.818;2023-05-20T00:37:27;22.05;;;10.80;;
75154;SDS011;63735;44.730;37.818;2023-05-20T00:39:53;21.20;;;10.88;;
75154;SDS011;63735;44.730;37.818;2023-05-20T00:42:20;19.90;;;11.25;;
75154;SDS011;63735;44.730;37.818;2023-05-20T00:44:49;23.95;;;12.77;;
75154;SDS011;63735;44.730;37.818;2023-05-20T00:47:19;19.90;;;12.27;;
75154;SDS011;63735;44.730;37.818;2023-05-20T00:49:50;20.30;;;12.10;;
75154;SDS011;63735;44.730;37.818;2023-05-20T00:52:17;26.50;;;14.85;;
75154;SDS011;63735;44.730;37.818;2023-05-20T00:54:44;23.13;;;12.63;;
75154;SDS011;63735;44.730;37.818;2023-05-20T00:57:10;20.77;;;11.45;;
75154;SDS011;63735;44.730;37.818;2023-05-20T01:02:04;25.42;;;12.77;;
75154;SDS011;63735;44.730;37.818;2023-05-20T01:04:31;19.98;;;11.75;;
75154;SDS011;63735;44.730;37.818;2023-05-20T01:07:01;20.20;;;10.77;;
75154;SDS011;63735;44.730;37.818;2023-05-20T01:09:30;22.48;;;12.40;;
75154;SDS011;63735;44.730;37.818;2023-05-20T01:14:28;20.08;;;11.43;;
75154;SDS011;63735;44.730;37.818;2023-05-20T01:17:00;24.42;;;13.23;;
75154;SDS011;63735;44.730;37.818;2023-05-20T01:19:40;21.42;;;13.23;;
75154;SDS011;63735;44.730;37.818;2023-05-20T01:22:10;20.50;;;12.20;;
75154;SDS011;63735;44.730;37.818;2023-05-20T01:24:40;23.15;;;12.93;;
75154;SDS011;63735;44.730;37.818;2023-05-20T01:27:13;24.50;;;12.55;;
75154;SDS011;63735;44.730;37.818;2023-05-20T01:29:40;24.40;;;12.80;;
75154;SDS011;63735;44.730;37.818;2023-05-20T01:32:10;24.90;;;11.95;;
75154;SDS011;63735;44.730;37.818;2023-05-20T01:34:41;26.00;;;14.00;;
75154;SDS011;63735;44.730;37.818;2023-05-20T01:37:08;19.65;;;12.50;;
75154;SDS011;63735;44.730;37.818;2023-05-20T01:39:35;19.95;;;12.60;;
75154;SDS011;63735;44.730;37.818;2023-05-20T01:42:06;21.00;;;12.00;;
75154;SDS011;63735;44.730;37.818;2023-05-20T01:44:34;20.15;;;11.93;;
75154;SDS011;63735;44.730;37.818;2023-05-20T01:47:01;27.63;;;12.75;;
75154;SDS011;63735;44.730;37.818;2023-05-20T01:49:27;23.05;;;11.65;;
75154;SDS011;63735;44.730;37.818;2023-05-20T01:51:53;24.27;;;12.57;;
75154;SDS011;63735;44.730;37.818;2023-05-20T01:54:19;22.48;;;12.43;;
75154;SDS011;63735;44.730;37.818;2023-05-20T01:56:46;21.98;;;11.88;;
75154;SDS011;63735;44.730;37.818;2023-05-20T01:59:12;22.02;;;10.95;;
75154;SDS011;63735;44.730;37.818;2023-05-20T02:01:38;18.13;;;11.27;;
75154;SDS011;63735;44.730;37.818;2023-05-20T02:04:04;21.35;;;12.57;;
75154;SDS011;63735;44.730;37.818;2023-05-20T02:06:30;23.02;;;12.02;;
75154;SDS011;63735;44.730;37.818;2023-05-20T02:08:56;23.00;;;12.30;;
75154;SDS011;63735;44.730;37.818;2023-05-20T02:11:22;33.00;;;12.95;;
75154;SDS011;63735;44.730;37.818;2023-05-20T02:13:48;23.40;;;12.30;;
75154;SDS011;63735;44.730;37.818;2023-05-20T02:16:15;20.38;;;11.52;;
75154;SDS011;63735;44.730;37.818;2023-05-20T02:18:41;21.08;;;12.07;;
75154;SDS011;63735;44.730;37.818;2023-05-20T02:21:08;21.98;;;12.15;;
75154;SDS011;63735;44.730;37.818;2023-05-20T02:23:34;21.75;;;12.15;;
75154;SDS011;63735;44.730;37.818;2023-05-20T02:26:00;25.33;;;12.77;;
75154;SDS011;63735;44.730;37.818;2023-05-20T02:28:26;21.48;;;11.75;;
75154;SDS011;63735;44.730;37.818;2023-05-20T02:30:53;27.40;;;12.43;;
75154;SDS011;63735;44.730;37.818;2023-05-20T02:33:20;21.40;;;12.63;;
75154;SDS011;63735;44.730;37.818;2023-05-20T02:35:46;30.65;;;14.75;;
75154;SDS011;63735;44.730;37.818;2023-05-20T02:38:12;32.55;;;14.80;;
75154;SDS011;63735;44.730;37.818;2023-05-20T02:40:38;28.90;;;13.38;;
75154;SDS011;63735;44.730;37.818;2023-05-20T02:43:08;26.70;;;12.93;;
75154;SDS011;63735;44.730;37.818;2023-05-20T02:45:34;28.33;;;14.05;;
75154;SDS011;63735;44.730;37.818;2023-05-20T02:48:00;25.25;;;13.82;;
75154;SDS011;63735;44.730;37.818;2023-05-20T02:50:26;27.08;;;14.25;;
75154;SDS011;63735;44.730;37.818;2023-05-20T02:52:52;22.80;;;12.68;;
75154;SDS011;63735;44.730;37.818;2023-05-20T02:55:18;24.80;;;13.20;;
75154;SDS011;63735;44.730;37.818;2023-05-20T02:57:44;26.90;;;12.35;;
75154;SDS011;63735;44.730;37.818;2023-05-20T03:00:10;22.13;;;13.52;;
75154;SDS011;63735;44.730;37.818;2023-05-20T03:02:37;26.55;;;12.38;;
75154;SDS011;63735;44.730;37.818;2023-05-20T03:05:03;25.70;;;13.10;;
75154;SDS011;63735;44.730;37.818;2023-05-20T03:07:30;25.10;;;12.15;;
75154;SDS011;63735;44.730;37.818;2023-05-20T03:09:58;21.33;;;11.80;;
75154;SDS011;63735;44.730;37.818;2023-05-20T03:12:24;27.63;;;12.15;;
75154;SDS011;63735;44.730;37.818;2023-05-20T03:14:51;22.00;;;8.85;;
75154;SDS011;63735;44.730;37.818;2023-05-20T03:17:20;22.02;;;7.28;;
75154;SDS011;63735;44.730;37.818;2023-05-20T03:19:47;17.13;;;5.70;;
75154;SDS011;63735;44.730;37.818;2023-05-20T03:22:13;16.10;;;5.75;;
75154;SDS011;63735;44.730;37.818;2023-05-20T03:24:39;5.70;;;3.10;;
75154;SDS011;63735;44.730;37.818;2023-05-20T03:27:07;11.55;;;3.80;;
75154;SDS011;63735;44.730;37.818;2023-05-20T03:29:33;11.50;;;3.30;;
75154;SDS011;63735;44.730;37.818;2023-05-20T03:32:01;7.63;;;3.58;;
75154;SDS011;63735;44.730;37.818;2023-05-20T03:34:27;8.82;;;3.30;;
75154;SDS011;63735;44.730;37.818;2023-05-20T03:39:21;9.13;;;3.13;;
75154;SDS011;63735;44.730;37.818;2023-05-20T03:41:47;11.15;;;3.30;;
75154;SDS011;63735;44.730;37.818;2023-05-20T03:44:14;7.07;;;2.65;;
75154;SDS011;63735;44.730;37.818;2023-05-20T03:46:40;4.65;;;2.08;;
75154;SDS011;63735;44.730;37.818;2023-05-20T03:49:06;10.57;;;2.78;;
75154;SDS011;63735;44.730;37.818;2023-05-20T03:51:32;9.07;;;3.00;;
75154;SDS011;63735;44.730;37.818;2023-05-20T03:54:04;13.27;;;2.90;;
75154;SDS011;63735;44.730;37.818;2023-05-20T03:56:30;7.65;;;3.20;;
75154;SDS011;63735;44.730;37.818;2023-05-20T03:58:56;7.40;;;2.80;;
75154;SDS011;63735;44.730;37.818;2023-05-20T04:01:22;8.10;;;3.10;;
75154;SDS011;63735;44.730;37.818;2023-05-20T04:03:50;7.65;;;2.80;;
75154;SDS011;63735;44.730;37.818;2023-05-20T04:06:16;9.82;;;3.22;;
75154;SDS011;63735;44.730;37.818;2023-05-20T04:08:43;14.77;;;3.40;;
75154;SDS011;63735;44.730;37.818;2023-05-20T04:11:10;7.15;;;3.22;;
75154;SDS011;63735;44.730;37.818;2023-05-20T04:13:36;7.97;;;3.00;;
75154;SDS011;63735;44.730;37.818;2023-05-20T04:16:02;8.77;;;3.08;;
75154;SDS011;63735;44.730;37.818;2023-05-20T04:18:30;7.68;;;2.78;;
75154;SDS011;63735;44.730;37.818;2023-05-20T04:20:56;7.97;;;2.90;;
75154;SDS011;63735;44.730;37.818;2023-05-20T04:23:23;8.52;;;3.45;;
75154;SDS011;63735;44.730;37.818;2023-05-20T04:25:49;4.22;;;2.70;;
75154;SDS011;63735;44.730;37.818;2023-05-20T04:28:15;8.98;;;3.20;;
75154;SDS011;63735;44.730;37.818;2023-05-20T04:30:42;12.95;;;3.53;;
75154;SDS011;63735;44.730;37.818;2023-05-20T04:33:11;6.88;;;3.30;;
75154;SDS011;63735;44.730;37.818;2023-05-20T04:35:37;6.90;;;3.05;;
75154;SDS011;63735;44.730;37.818;2023-05-20T04:38:07;4.78;;;3.08;;
75154;SDS011;63735;44.730;37.818;2023-05-20T04:40:33;7.82;;;2.83;;
75154;SDS011;63735;44.730;37.818;2023-05-20T04:43:00;9.82;;;3.17;;
75154;SDS011;63735;44.730;37.818;2023-05-20T04:45:28;22.77;;;3.70;;
75154;SDS011;63735;44.730;37.818;2023-05-20T04:47:54;6.55;;;2.80;;
75154;SDS011;63735;44.730;37.818;2023-05-20T04:50:20;6.05;;;2.80;;
75154;SDS011;63735;44.730;37.818;2023-05-20T04:52:46;11.00;;;3.33;;
75154;SDS011;63735;44.730;37.818;2023-05-20T04:55:12;7.10;;;3.50;;
75154;SDS011;63735;44.730;37.818;2023-05-20T04:57:41;9.13;;;3.80;;
75154;SDS011;63735;44.730;37.818;2023-05-20T05:00:08;11.68;;;3.10;;
75154;SDS011;63735;44.730;37.818;2023-05-20T05:02:37;7.55;;;2.60;;
75154;SDS011;63735;44.730;37.818;2023-05-20T05:05:03;13.27;;;3.22;;
75154;SDS011;63735;44.730;37.818;2023-05-20T05:07:30;11.05;;;3.35;;
75154;SDS011;63735;44.730;37.818;2023-05-20T05:10:04;11.13;;;2.70;;
75154;SDS011;63735;44.730;37.818;2023-05-20T05:12:31;7.45;;;3.17;;
75154;SDS011;63735;44.730;37.818;2023-05-20T05:14:58;8.55;;;3.47;;
75154;SDS011;63735;44.730;37.818;2023-05-20T05:17:24;12.63;;;3.53;;
75154;SDS011;63735;44.730;37.818;2023-05-20T05:19:50;7.53;;;3.17;;
75154;SDS011;63735;44.730;37.818;2023-05-20T05:22:16;11.07;;;3.63;;
75154;SDS011;63735;44.730;37.818;2023-05-20T05:24:42;10.25;;;3.60;;
75154;SDS011;63735;44.730;37.818;2023-05-20T05:27:08;9.68;;;3.08;;
75154;SDS011;63735;44.730;37.818;2023-05-20T05:29:35;5.80;;;3.15;;
75154;SDS011;63735;44.730;37.818;2023-05-20T05:32:01;8.27;;;3.28;;
75154;SDS011;63735;44.730;37.818;2023-05-20T05:34:27;5.38;;;3.10;;
75154;SDS011;63735;44.730;37.818;2023-05-20T05:36:53;8.32;;;3.60;;
75154;SDS011;63735;44.730;37.818;2023-05-20T05:39:19;12.48;;;3.42;;
75154;SDS011;63735;44.730;37.818;2023-05-20T05:41:46;9.23;;;3.40;;
75154;SDS011;63735;44.730;37.818;2023-05-20T05:44:12;5.78;;;2.75;;
75154;SDS011;63735;44.730;37.818;2023-05-20T05:46:39;6.20;;;2.80;;
75154;SDS011;63735;44.730;37.818;2023-05-20T05:49:05;7.95;;;2.90;;
75154;SDS011;63735;44.730;37.818;2023-05-20T05:51:32;9.10;;;2.63;;
75154;SDS011;63735;44.730;37.818;2023-05-20T05:53:58;11.30;;;2.92;;
75154;SDS011;63735;44.730;37.818;2023-05-20T05:56:24;9.57;;;2.88;;
75154;SDS011;63735;44.730;37.818;2023-05-20T05:58:51;11.25;;;4.50;;
75154;SDS011;63735;44.730;37.818;2023-05-20T06:01:17;14.50;;;5.53;;
75154;SDS011;63735;44.730;37.818;2023-05-20T06:03:43;7.97;;;4.03;;
75154;SDS011;63735;44.730;37.818;2023-05-20T06:06:09;14.82;;;3.03;;
75154;SDS011;63735;44.730;37.818;2023-05-20T06:08:35;10.00;;;3.00;;
75154;SDS011;63735;44.730;37.818;2023-05-20T06:11:01;17.48;;;3.97;;
75154;SDS011;63735;44.730;37.818;2023-05-20T06:13:29;9.25;;;3.38;;
75154;SDS011;63735;44.730;37.818;2023-05-20T06:15:55;7.03;;;3.42;;
75154;SDS011;63735;44.730;37.818;2023-05-20T06:18:23;8.48;;;2.88;;
75154;SDS011;63735;44.730;37.818;2023-05-20T06:20:55;5.43;;;3.58;;
75154;SDS011;63735;44.730;37.818;2023-05-20T06:23:23;6.03;;;2.90;;
75154;SDS011;63735;44.730;37.818;2023-05-20T06:26:02;7.38;;;2.97;;
75154;SDS011;63735;44.730;37.818;2023-05-20T06:28:29;10.63;;;2.38;;
75154;SDS011;63735;44.730;37.818;2023-05-20T06:30:56;11.40;;;2.80;;
75154;SDS011;63735;44.730;37.818;2023-05-20T06:33:24;15.32;;;3.65;;
75154;SDS011;63735;44.730;37.818;2023-05-20T06:35:54;13.63;;;3.92;;
75154;SDS011;63735;44.730;37.818;2023-05-20T06:38:21;7.22;;;3.05;;
75154;SDS011;63735;44.730;37.818;2023-05-20T06:40:48;15.45;;;3.80;;
75154;SDS011;63735;44.730;37.818;2023-05-20T06:43:15;16.52;;;4.25;;
75154;SDS011;63735;44.730;37.818;2023-05-20T06:46:05;9.75;;;3.00;;
75154;SDS011;63735;44.730;37.818;2023-05-20T06:48:37;15.68;;;4.13;;
75154;SDS011;63735;44.730;37.818;2023-05-20T06:51:08;8.18;;;2.83;;
75154;SDS011;63735;44.730;37.818;2023-05-20T06:53:34;9.23;;;2.90;;
75154;SDS011;63735;44.730;37.818;2023-05-20T06:56:01;11.73;;;4.15;;
75154;SDS011;63735;44.730;37.818;2023-05-20T06:58:28;12.57;;;4.03;;
75154;SDS011;63735;44.730;37.818;2023-05-20T07:00:55;9.40;;;4.18;;
75154;SDS011;63735;44.730;37.818;2023-05-20T07:03:22;10.57;;;4.00;;
75154;SDS011;63735;44.730;37.818;2023-05-20T07:05:49;10.23;;;4.43;;
75154;SDS011;63735;44.730;37.818;2023-05-20T07:08:16;9.02;;;3.60;;
75154;SDS011;63735;44.730;37.818;2023-05-20T07:10:43;13.77;;;4.68;;
75154;SDS011;63735;44.730;37.818;2023-05-20T07:13:13;9.20;;;4.65;;
75154;SDS011;63735;44.730;37.818;2023-05-20T07:15:40;8.13;;;4.68;;
75154;SDS011;63735;44.730;37.818;2023-05-20T07:18:06;9.52;;;4.38;;
75154;SDS011;63735;44.730;37.818;2023-05-20T07:20:32;7.95;;;4.55;;
75154;SDS011;63735;44.730;37.818;2023-05-20T07:23:02;9.38;;;4.07;;
75154;SDS011;63735;44.730;37.818;2023-05-20T07:25:35;10.18;;;3.70;;
75154;SDS011;63735;44.730;37.818;2023-05-20T07:28:01;8.30;;;3.88;;
75154;SDS011;63735;44.730;37.818;2023-05-20T07:30:27;10.57;;;4.43;;
75154;SDS011;63735;44.730;37.818;2023-05-20T07:33:15;22.77;;;5.68;;
75154;SDS011;63735;44.730;37.818;2023-05-20T07:35:43;14.20;;;4.68;;
75154;SDS011;63735;44.730;37.818;2023-05-20T07:38:11;11.35;;;4.30;;
75154;SDS011;63735;44.730;37.818;2023-05-20T07:40:38;22.38;;;5.28;;
75154;SDS011;63735;44.730;37.818;2023-05-20T07:43:07;7.18;;;2.83;;
75154;SDS011;63735;44.730;37.818;2023-05-20T07:45:33;8.45;;;2.80;;
75154;SDS011;63735;44.730;37.818;2023-05-20T07:48:01;12.80;;;3.67;;
75154;SDS011;63735;44.730;37.818;2023-05-20T07:50:28;8.30;;;3.13;;
75154;SDS011;63735;44.730;37.818;2023-05-20T07:52:55;14.73;;;4.28;;
75154;SDS011;63735;44.730;37.818;2023-05-20T07:55:23;11.52;;;4.53;;
75154;SDS011;63735;44.730;37.818;2023-05-20T07:57:49;13.13;;;3.92;;
75154;SDS011;63735;44.730;37.818;2023-05-20T08:00:15;13.45;;;4.53;;
75154;SDS011;63735;44.730;37.818;2023-05-20T08:02:44;8.32;;;4.70;;
75154;SDS011;63735;44.730;37.818;2023-05-20T08:05:14;15.43;;;4.22;;
75154;SDS011;63735;44.730;37.818;2023-05-20T08:07:41;7.55;;;4.75;;
75154;SDS011;63735;44.730;37.818;2023-05-20T08:10:08;12.32;;;4.18;;
75154;SDS011;63735;44.730;37.818;2023-05-20T08:12:35;6.95;;;3.35;;
75154;SDS011;63735;44.730;37.818;2023-05-20T08:15:01;10.23;;;4.15;;
75154;SDS011;63735;44.730;37.818;2023-05-20T08:17:29;16.80;;;6.60;;
75154;SDS011;63735;44.730;37.818;2023-05-20T08:19:55;8.23;;;3.55;;
75154;SDS011;63735;44.730;37.818;2023-05-20T08:22:21;16.65;;;4.93;;
75154;SDS011;63735;44.730;37.818;2023-05-20T08:24:47;19.23;;;5.47;;
75154;SDS011;63735;44.730;37.818;2023-05-20T08:27:14;15.10;;;4.18;;
75154;SDS011;63735;44.730;37.818;2023-05-20T08:29:41;7.90;;;4.00;;
75154;SDS011;63735;44.730;37.818;2023-05-20T08:32:10;11.27;;;4.97;;
75154;SDS011;63735;44.730;37.818;2023-05-20T08:34:36;12.02;;;5.70;;
75154;SDS011;63735;44.730;37.818;2023-05-20T08:37:02;10.00;;;4.57;;
75154;SDS011;63735;44.730;37.818;2023-05-20T08:39:28;13.52;;;4.57;;
75154;SDS011;63735;44.730;37.818;2023-05-20T08:41:56;11.63;;;4.55;;
75154;SDS011;63735;44.730;37.818;2023-05-20T08:46:49;8.55;;;4.28;;
75154;SDS011;63735;44.730;37.818;2023-05-20T08:49:18;15.98;;;5.97;;
75154;SDS011;63735;44.730;37.818;2023-05-20T08:51:44;11.07;;;4.80;;
75154;SDS011;63735;44.730;37.818;2023-05-20T08:54:11;10.07;;;4.88;;
75154;SDS011;63735;44.730;37.818;2023-05-20T08:56:39;12.60;;;5.45;;
75154;SDS011;63735;44.730;37.818;2023-05-20T08:59:06;8.30;;;5.22;;
75154;SDS011;63735;44.730;37.818;2023-05-20T09:01:34;12.00;;;5.60;;
75154;SDS011;63735;44.730;37.818;2023-05-20T09:04:07;13.05;;;4.90;;
75154;SDS011;63735;44.730;37.818;2023-05-20T09:06:46;9.13;;;4.82;;
75154;SDS011;63735;44.730;37.818;2023-05-20T09:09:12;10.27;;;3.72;;
75154;SDS011;63735;44.730;37.818;2023-05-20T09:11:39;11.80;;;5.03;;
75154;SDS011;63735;44.730;37.818;2023-05-20T09:14:06;11.25;;;4.45;;
75154;SDS011;63735;44.730;37.818;2023-05-20T09:16:32;12.18;;;4.68;;
75154;SDS011;63735;44.730;37.818;2023-05-20T09:18:59;11.45;;;4.90;;
75154;SDS011;63735;44.730;37.818;2023-05-20T09:21:25;7.75;;;4.65;;
75154;SDS011;63735;44.730;37.818;2023-05-20T09:23:52;11.45;;;5.35;;
75154;SDS011;63735;44.730;37.818;2023-05-20T09:26:21;10.90;;;4.60;;
75154;SDS011;63735;44.730;37.818;2023-05-20T09:28:50;16.80;;;4.20;;
75154;SDS011;63735;44.730;37.818;2023-05-20T09:31:16;10.40;;;4.03;;
75154;SDS011;63735;44.730;37.818;2023-05-20T09:33:42;12.18;;;4.43;;
75154;SDS011;63735;44.730;37.818;2023-05-20T09:36:08;9.90;;;4.45;;
75154;SDS011;63735;44.730;37.818;2023-05-20T09:38:36;7.53;;;3.05;;
75154;SDS011;63735;44.730;37.818;2023-05-20T09:41:07;9.20;;;4.72;;
75154;SDS011;63735;44.730;37.818;2023-05-20T09:43:36;9.30;;;4.35;;
75154;SDS011;63735;44.730;37.818;2023-05-20T09:46:03;7.57;;;4.10;;
75154;SDS011;63735;44.730;37.818;2023-05-20T09:48:30;5.95;;;3.40;;
75154;SDS011;63735;44.730;37.818;2023-05-20T09:50:56;12.02;;;4.82;;
75154;SDS011;63735;44.730;37.818;2023-05-20T09:53:23;8.80;;;3.67;;
75154;SDS011;63735;44.730;37.818;2023-05-20T09:55:52;10.40;;;4.15;;
75154;SDS011;63735;44.730;37.818;2023-05-20T09:58:19;13.35;;;4.32;;
75154;SDS011;63735;44.730;37.818;2023-05-20T10:00:45;5.03;;;3.25;;
75154;SDS011;63735;44.730;37.818;2023-05-20T10:03:11;8.77;;;3.95;;
75154;SDS011;63735;44.730;37.818;2023-05-20T10:05:44;11.35;;;5.28;;
75154;SDS011;63735;44.730;37.818;2023-05-20T10:17:15;8.02;;;3.60;;
75154;SDS011;63735;44.730;37.818;2023-05-20T10:19:47;14.35;;;4.78;;
75154;SDS011;63735;44.730;37.818;2023-05-20T10:22:24;9.52;;;4.88;;
75154;SDS011;63735;44.730;37.818;2023-05-20T10:24:57;9.05;;;4.72;;
75154;SDS011;63735;44.730;37.818;2023-05-20T10:27:24;13.40;;;4.95;;
75154;SDS011;63735;44.730;37.818;2023-05-20T10:29:56;9.13;;;4.30;;
75154;SDS011;63735;44.730;37.818;2023-05-20T10:32:26;8.05;;;4.18;;
75154;SDS011;63735;44.730;37.818;2023-05-20T10:35:04;18.50;;;4.72;;
75154;SDS011;63735;44.730;37.818;2023-05-20T10:37:43;16.63;;;3.90;;
75154;SDS011;63735;44.730;37.818;2023-05-20T10:40:19;10.07;;;3.97;;
75154;SDS011;63735;44.730;37.818;2023-05-20T10:42:46;12.50;;;4.20;;
75154;SDS011;63735;44.730;37.818;2023-05-20T10:45:28;10.40;;;4.97;;
75154;SDS011;63735;44.730;37.818;2023-05-20T10:47:57;14.57;;;4.25;;
75154;SDS011;63735;44.730;37.818;2023-05-20T10:50:27;21.83;;;4.78;;
75154;SDS011;63735;44.730;37.818;2023-05-20T10:52:54;13.25;;;4.05;;
75154;SDS011;63735;44.730;37.818;2023-05-20T10:55:33;10.98;;;2.85;;
75154;SDS011;63735;44.730;37.818;2023-05-20T10:58:04;12.93;;;3.30;;
75154;SDS011;63735;44.730;37.818;2023-05-20T11:00:33;10.02;;;2.72;;
75154;SDS011;63735;44.730;37.818;2023-05-20T11:03:00;10.57;;;2.92;;
75154;SDS011;63735;44.730;37.818;2023-05-20T11:05:27;9.23;;;2.55;;
75154;SDS011;63735;44.730;37.818;2023-05-20T11:08:03;12.32;;;2.40;;
75154;SDS011;63735;44.730;37.818;2023-05-20T11:10:32;5.70;;;2.65;;
75154;SDS011;63735;44.730;37.818;2023-05-20T11:13:00;10.85;;;3.33;;
75154;SDS011;63735;44.730;37.818;2023-05-20T11:15:26;7.57;;;2.10;;
75154;SDS011;63735;44.730;37.818;2023-05-20T11:17:53;5.35;;;2.08;;
75154;SDS011;63735;44.730;37.818;2023-05-20T11:20:20;12.30;;;2.58;;
75154;SDS011;63735;44.730;37.818;2023-05-20T11:22:49;9.18;;;3.25;;
75154;SDS011;63735;44.730;37.818;2023-05-20T11:25:16;5.75;;;2.45;;
75154;SDS011;63735;44.730;37.818;2023-05-20T11:27:42;7.78;;;2.90;;
75154;SDS011;63735;44.730;37.818;2023-05-20T11:30:10;11.63;;;2.90;;
75154;SDS011;63735;44.730;37.818;2023-05-20T11:32:37;8.15;;;2.47;;
75154;SDS011;63735;44.730;37.818;2023-05-20T11:35:03;6.32;;;2.58;;
75154;SDS011;63735;44.730;37.818;2023-05-20T11:37:30;12.45;;;2.40;;
75154;SDS011;63735;44.730;37.818;2023-05-20T11:40:03;7.88;;;2.45;;
75154;SDS011;63735;44.730;37.818;2023-05-20T11:42:32;7.00;;;2.30;;
75154;SDS011;63735;44.730;37.818;2023-05-20T11:44:59;17.92;;;4.13;;
75154;SDS011;63735;44.730;37.818;2023-05-20T11:47:25;9.43;;;2.47;;
75154;SDS011;63735;44.730;37.818;2023-05-20T11:49:57;8.40;;;2.80;;
75154;SDS011;63735;44.730;37.818;2023-05-20T11:52:24;11.25;;;2.30;;
75154;SDS011;63735;44.730;37.818;2023-05-20T11:54:53;10.52;;;2.47;;
75154;SDS011;63735;44.730;37.818;2023-05-20T11:57:18;5.15;;;2.20;;
75154;SDS011;63735;44.730;37.818;2023-05-20T11:59:45;12.88;;;2.25;;
75154;SDS011;63735;44.730;37.818;2023-05-20T12:04:37;6.22;;;2.17;;
75154;SDS011;63735;44.730;37.818;2023-05-20T12:07:03;11.25;;;2.45;;
75154;SDS011;63735;44.730;37.818;2023-05-20T12:09:33;6.70;;;2.88;;
75154;SDS011;63735;44.730;37.818;2023-05-20T12:11:59;12.80;;;2.53;;
75154;SDS011;63735;44.730;37.818;2023-05-20T12:14:26;14.52;;;2.42;;
75154;SDS011;63735;44.730;37.818;2023-05-20T12:16:52;7.35;;;2.33;;
75154;SDS011;63735;44.730;37.818;2023-05-20T12:19:18;11.35;;;2.30;;
75154;SDS011;63735;44.730;37.818;2023-05-20T12:21:44;13.00;;;2.47;;
75154;SDS011;63735;44.730;37.818;2023-05-20T12:26:37;7.82;;;2.33;;
75154;SDS011;63735;44.730;37.818;2023-05-20T12:29:03;7.95;;;2.15;;
75154;SDS011;63735;44.730;37.818;2023-05-20T12:31:29;13.55;;;2.58;;
75154;SDS011;63735;44.730;37.818;2023-05-20T12:33:54;21.90;;;2.55;;
75154;SDS011;63735;44.730;37.818;2023-05-20T12:36:20;6.00;;;1.85;;
75154;SDS011;63735;44.730;37.818;2023-05-20T12:38:46;5.72;;;2.33;;
75154;SDS011;63735;44.730;37.818;2023-05-20T12:41:12;10.18;;;2.75;;
75154;SDS011;63735;44.730;37.818;2023-05-20T12:43:38;8.40;;;2.55;;
75154;SDS011;63735;44.730;37.818;2023-05-20T12:46:04;5.47;;;2.67;;
75154;SDS011;63735;44.730;37.818;2023-05-20T12:48:30;8.32;;;2.55;;
75154;SDS011;63735;44.730;37.818;2023-05-20T12:50:56;7.32;;;2.83;;
75154;SDS011;63735;44.730;37.818;2023-05-20T12:53:22;8.45;;;2.55;;
75154;SDS011;63735;44.730;37.818;2023-05-20T12:55:48;13.57;;;3.15;;
75154;SDS011;63735;44.730;37.818;2023-05-20T12:58:14;9.80;;;2.60;;
75154;SDS011;63735;44.730;37.818;2023-05-20T13:00:40;7.05;;;3.05;;
75154;SDS011;63735;44.730;37.818;2023-05-20T13:03:06;8.85;;;2.13;;
75154;SDS011;63735;44.730;37.818;2023-05-20T13:05:32;6.18;;;2.50;;
75154;SDS011;63735;44.730;37.818;2023-05-20T13:07:58;10.07;;;2.25;;
75154;SDS011;63735;44.730;37.818;2023-05-20T13:10:24;4.38;;;2.40;;
75154;SDS011;63735;44.730;37.818;2023-05-20T13:12:52;13.30;;;3.25;;
75154;SDS011;63735;44.730;37.818;2023-05-20T13:15:17;8.75;;;2.90;;
75154;SDS011;63735;44.730;37.818;2023-05-20T13:17:43;8.73;;;1.98;;
75154;SDS011;63735;44.730;37.818;2023-05-20T13:20:09;12.77;;;2.28;;
75154;SDS011;63735;44.730;37.818;2023-05-20T13:22:36;10.52;;;1.90;;
75154;SDS011;63735;44.730;37.818;2023-05-20T13:25:02;5.10;;;2.35;;
75154;SDS011;63735;44.730;37.818;2023-05-20T13:27:29;6.25;;;2.05;;
75154;SDS011;63735;44.730;37.818;2023-05-20T13:29:55;5.97;;;2.20;;
75154;SDS011;63735;44.730;37.818;2023-05-20T13:32:21;10.48;;;2.30;;
75154;SDS011;63735;44.730;37.818;2023-05-20T13:34:47;9.68;;;2.45;;
75154;SDS011;63735;44.730;37.818;2023-05-20T13:37:13;15.43;;;2.75;;
75154;SDS011;63735;44.730;37.818;2023-05-20T13:39:39;24.95;;;3.05;;
75154;SDS011;63735;44.730;37.818;2023-05-20T13:42:05;6.68;;;2.40;;
75154;SDS011;63735;44.730;37.818;2023-05-20T13:44:31;7.43;;;2.50;;
75154;SDS011;63735;44.730;37.818;2023-05-20T13:46:57;7.32;;;2.13;;
75154;SDS011;63735;44.730;37.818;2023-05-20T13:49:22;15.57;;;2.55;;
75154;SDS011;63735;44.730;37.818;2023-05-20T13:51:49;12.63;;;2.53;;
75154;SDS011;63735;44.730;37.818;2023-05-20T13:54:15;13.43;;;2.60;;
75154;SDS011;63735;44.730;37.818;2023-05-20T13:56:41;8.48;;;2.40;;
75154;SDS011;63735;44.730;37.818;2023-05-20T13:59:07;13.98;;;2.22;;
75154;SDS011;63735;44.730;37.818;2023-05-20T14:01:33;7.10;;;2.47;;
75154;SDS011;63735;44.730;37.818;2023-05-20T14:03:59;7.60;;;2.20;;
75154;SDS011;63735;44.730;37.818;2023-05-20T14:06:25;11.73;;;2.08;;
75154;SDS011;63735;44.730;37.818;2023-05-20T14:08:55;18.02;;;3.08;;
75154;SDS011;63735;44.730;37.818;2023-05-20T14:11:21;9.32;;;2.10;;
75154;SDS011;63735;44.730;37.818;2023-05-20T14:13:47;9.02;;;2.40;;
75154;SDS011;63735;44.730;37.818;2023-05-20T14:16:13;5.72;;;2.08;;
75154;SDS011;63735;44.730;37.818;2023-05-20T14:18:39;13.95;;;2.83;;
75154;SDS011;63735;44.730;37.818;2023-05-20T14:21:05;8.20;;;1.95;;
75154;SDS011;63735;44.730;37.818;2023-05-20T14:23:31;6.85;;;2.40;;
75154;SDS011;63735;44.730;37.818;2023-05-20T14:25:57;19.85;;;2.33;;
75154;SDS011;63735;44.730;37.818;2023-05-20T14:28:24;13.80;;;2.55;;
75154;SDS011;63735;44.730;37.818;2023-05-20T14:30:50;7.55;;;2.42;;
75154;SDS011;63735;44.730;37.818;2023-05-20T14:33:16;10.18;;;2.28;;
75154;SDS011;63735;44.730;37.818;2023-05-20T14:35:42;5.80;;;2.05;;
75154;SDS011;63735;44.730;37.818;2023-05-20T14:38:08;5.35;;;2.10;;
75154;SDS011;63735;44.730;37.818;2023-05-20T14:40:33;7.32;;;2.13;;
75154;SDS011;63735;44.730;37.818;2023-05-20T14:42:59;18.23;;;2.70;;
75154;SDS011;63735;44.730;37.818;2023-05-20T14:45:25;4.43;;;2.22;;
75154;SDS011;63735;44.730;37.818;2023-05-20T14:47:51;10.30;;;2.55;;